Weather at Mountain Airpark

Public forecast

Using degrees Fahrenheit for public forecast. Weather courtesy of forecast.io.

Closest aviation weather report (METAR) to Mountain Airpark

Closest report is Habersham County Airport, 8.6 nm (15.9 km) ESE. Retrieved 2020/12/04 23:35 UTC (0 seconds ago):

KAJR 042335Z AUTO 26008KT 2 1/2SM BR OVC002 10/09 A2990 RMK AO2 T00980090

Closest aviation forecast (TAF) to Mountain Airpark

Closest forecast is Athens Ben Epps Airport, 41.5 nm (76.9 km) SSE. Retrieved 2020/12/04 18:40 UTC (5 hours ago):

TAF KAHN 041737Z 0418/0518 09005KT 6SM -SHRA SCT015 BKN035 FM042000 14005KT 4SM -SHRA BKN009 BKN025 TEMPO 0421/0423 2SM SHRA BKN005 FM050100 27011G18KT P6SM VCSH BKN015 FM050500 30010KT P6SM SCT015 FM051200 30007KT P6SM SKC